createdAt,value
2017-01-07T00:00:21.706Z,-12.27
2017-01-07T00:01:21.694Z,-12.27
2017-01-07T00:02:21.690Z,-12.24
2017-01-07T00:03:21.686Z,-12.3
2017-01-07T00:04:21.682Z,-12.32
2017-01-07T00:05:21.674Z,-12.3
2017-01-07T00:06:21.258Z,-12.35
2017-01-07T00:07:21.667Z,-12.37
2017-01-07T00:08:21.657Z,-12.35
2017-01-07T00:09:21.246Z,-12.37
2017-01-07T00:10:21.238Z,-12.49
2017-01-07T00:11:21.642Z,-12.52
2017-01-07T00:12:20.814Z,-12.43
2017-01-07T00:13:21.214Z,-12.52
2017-01-07T00:14:21.218Z,-12.6
2017-01-07T00:15:21.219Z,-12.53
2017-01-07T00:16:21.619Z,-12.55
2017-01-07T00:17:20.786Z,-12.52
2017-01-07T00:18:21.201Z,-12.55
2017-01-07T00:19:21.187Z,-12.56
2017-01-07T00:20:21.183Z,-12.49
2017-01-07T00:21:21.167Z,-12.6
2017-01-07T00:22:21.171Z,-12.48
2017-01-07T00:23:21.155Z,-12.51
2017-01-07T00:24:21.162Z,-12.55
2017-01-07T00:25:21.151Z,-12.51
2017-01-07T00:26:21.559Z,-12.56
2017-01-07T00:27:21.143Z,-12.55
2017-01-07T00:28:21.135Z,-12.56
2017-01-07T00:29:21.131Z,-12.56
2017-01-07T00:30:21.539Z,-12.56
2017-01-07T00:31:21.119Z,-12.55
2017-01-07T00:32:21.519Z,-12.62
2017-01-07T00:33:21.111Z,-12.62
2017-01-07T00:34:21.103Z,-12.66
2017-01-07T00:35:21.515Z,-12.7
2017-01-07T00:36:21.091Z,-12.63
2017-01-07T00:37:21.515Z,-12.64
2017-01-07T00:38:21.075Z,-12.66
2017-01-07T00:39:21.083Z,-12.66
2017-01-07T00:40:21.059Z,-12.76
2017-01-07T00:41:21.067Z,-12.69
2017-01-07T00:42:21.476Z,-12.69
2017-01-07T00:43:21.052Z,-12.76
2017-01-07T00:44:21.051Z,-12.8
2017-01-07T00:45:21.043Z,-12.72
2017-01-07T00:46:21.443Z,-12.7
2017-01-07T00:47:21.447Z,-12.69
2017-01-07T00:48:21.019Z,-12.77
2017-01-07T00:49:21.430Z,-12.74
2017-01-07T00:50:21.015Z,-12.84
2017-01-07T00:51:21.014Z,-12.76
2017-01-07T00:52:21.006Z,-12.82
2017-01-07T00:53:21.242Z,-12.88
2017-01-07T00:54:20.994Z,-12.85
2017-01-07T00:55:20.994Z,-12.87
2017-01-07T00:56:21.394Z,-12.9
2017-01-07T00:57:21.386Z,-12.88
2017-01-07T00:58:21.121Z,-12.9
2017-01-07T00:59:20.969Z,-12.88
2017-01-07T01:00:20.957Z,-12.87
2017-01-07T01:01:21.365Z,-12.92
2017-01-07T01:02:20.945Z,-12.87
2017-01-07T01:03:21.045Z,-12.94
2017-01-07T01:04:20.937Z,-12.94
2017-01-07T01:05:21.345Z,-12.92
2017-01-07T01:06:20.920Z,-12.91
2017-01-07T01:07:21.329Z,-12.88
2017-01-07T01:08:21.063Z,-12.81
2017-01-07T01:09:20.901Z,-12.9
2017-01-07T01:10:20.501Z,-12.81
2017-01-07T01:11:20.897Z,-12.84
2017-01-07T01:12:20.889Z,-12.85
2017-01-07T01:13:21.033Z,-12.84
2017-01-07T01:14:21.289Z,-12.84
2017-01-07T01:15:21.289Z,-12.76
2017-01-07T01:16:20.861Z,-12.76
2017-01-07T01:17:20.860Z,-12.7
2017-01-07T01:18:20.852Z,-12.64
2017-01-07T01:19:20.857Z,-12.58
2017-01-07T01:20:20.840Z,-12.48
2017-01-07T01:21:21.257Z,-12.53
2017-01-07T01:22:21.248Z,-12.52
2017-01-07T01:23:21.240Z,-12.42
2017-01-07T01:24:21.229Z,-12.43
2017-01-07T01:25:20.820Z,-12.37
2017-01-07T01:26:20.804Z,-12.23
2017-01-07T01:27:21.220Z,-12.19
2017-01-07T01:28:20.804Z,-12.16
2017-01-07T01:29:20.804Z,-12.15
2017-01-07T01:30:20.788Z,-12.12
2017-01-07T01:31:20.784Z,-12.05
2017-01-07T01:32:20.772Z,-12.05
2017-01-07T01:33:20.780Z,-12.01
2017-01-07T01:34:21.188Z,-11.99
2017-01-07T01:35:20.767Z,-11.99
2017-01-07T01:36:21.164Z,-11.95
2017-01-07T01:37:20.760Z,-11.99
2017-01-07T01:38:21.160Z,-11.97
2017-01-07T01:39:20.735Z,-11.91
2017-01-07T01:40:20.728Z,-11.97
2017-01-07T01:41:20.731Z,-11.95
2017-01-07T01:42:20.723Z,-11.99
2017-01-07T01:43:21.135Z,-11.98
2017-01-07T01:44:20.704Z,-11.95
2017-01-07T01:45:20.711Z,-11.98
2017-01-07T01:46:21.115Z,-11.97
2017-01-07T01:47:21.103Z,-11.87
2017-01-07T01:48:20.687Z,-11.98
2017-01-07T01:49:20.687Z,-11.97
2017-01-07T01:50:21.095Z,-11.95
2017-01-07T01:51:20.667Z,-11.95
2017-01-07T01:52:20.667Z,-11.89
2017-01-07T01:53:21.059Z,-11.84
2017-01-07T01:54:21.071Z,-11.77
2017-01-07T01:55:20.654Z,-11.77
2017-01-07T01:56:20.658Z,-11.73
2017-01-07T01:57:20.647Z,-11.7
2017-01-07T01:58:21.039Z,-11.73
2017-01-07T01:59:20.635Z,-11.77
2017-01-07T02:00:21.031Z,-11.73
2017-01-07T02:01:20.615Z,-11.62
2017-01-07T02:02:21.031Z,-11.67
2017-01-07T02:03:20.599Z,-11.66
2017-01-07T02:04:21.011Z,-11.58
2017-01-07T02:05:20.583Z,-11.6
2017-01-07T02:06:21.002Z,-11.66
2017-01-07T02:07:20.583Z,-11.56
2017-01-07T02:08:20.991Z,-11.59
2017-01-07T02:09:20.979Z,-11.49
2017-01-07T02:10:20.967Z,-11.53
2017-01-07T02:11:20.563Z,-11.42
2017-01-07T02:12:20.563Z,-11.38
2017-01-07T02:13:20.555Z,-11.45
2017-01-07T02:14:20.555Z,-11.34
2017-01-07T02:15:20.535Z,-11.21
2017-01-07T02:16:20.943Z,-11.2
2017-01-07T02:17:20.943Z,-11.13
2017-01-07T02:18:20.519Z,-11.18
2017-01-07T02:19:20.507Z,-11.2
2017-01-07T02:20:20.507Z,-11.17
2017-01-07T02:21:20.915Z,-11.21
2017-01-07T02:22:20.503Z,-11.26
2017-01-07T02:23:20.507Z,-11.26
2017-01-07T02:24:20.491Z,-11.21
2017-01-07T02:25:20.483Z,-11.14
2017-01-07T02:26:20.891Z,-11.23
2017-01-07T02:27:20.475Z,-11.23
2017-01-07T02:28:20.879Z,-11.26
2017-01-07T02:29:20.463Z,-11.31
2017-01-07T02:30:20.871Z,-11.41
2017-01-07T02:31:20.875Z,-11.39
2017-01-07T02:32:20.455Z,-11.42
2017-01-07T02:33:20.432Z,-11.56
2017-01-07T02:34:20.847Z,-11.63
2017-01-07T02:35:20.423Z,-11.7
2017-01-07T02:36:20.459Z,-11.67
2017-01-07T02:37:20.411Z,-11.73
2017-01-07T02:38:20.416Z,-11.71
2017-01-07T02:39:20.819Z,-11.63
2017-01-07T02:40:20.815Z,-11.71
2017-01-07T02:41:19.983Z,-11.66
2017-01-07T02:42:20.807Z,-11.67
2017-01-07T02:43:20.379Z,-11.71
2017-01-07T02:44:20.383Z,-11.76
2017-01-07T02:45:20.371Z,-11.71
2017-01-07T02:46:20.367Z,-11.63
2017-01-07T02:47:20.363Z,-11.63
2017-01-07T02:48:20.771Z,-11.67
2017-01-07T02:49:20.759Z,-11.7
2017-01-07T02:50:20.755Z,-11.73
2017-01-07T02:51:20.743Z,-11.67
2017-01-07T02:52:20.747Z,-11.55
2017-01-07T02:53:20.331Z,-11.48
2017-01-07T02:54:20.322Z,-11.41
2017-01-07T02:55:20.318Z,-11.31
2017-01-07T02:56:20.315Z,-11.34
2017-01-07T02:57:20.299Z,-11.23
2017-01-07T02:58:20.714Z,-11.18
2017-01-07T02:59:19.894Z,-11.24
2017-01-07T03:00:20.290Z,-11.11
2017-01-07T03:01:19.879Z,-11.16
2017-01-07T03:02:20.686Z,-11.02
2017-01-07T03:03:20.682Z,-10.99
2017-01-07T03:04:20.266Z,-10.92
2017-01-07T03:05:20.267Z,-10.95
2017-01-07T03:06:20.255Z,-10.8
2017-01-07T03:07:20.251Z,-10.85
2017-01-07T03:08:20.247Z,-10.87
2017-01-07T03:09:20.235Z,-10.76
2017-01-07T03:10:19.827Z,-10.87
2017-01-07T03:11:20.231Z,-10.76
2017-01-07T03:12:20.223Z,-10.8
2017-01-07T03:13:20.220Z,-10.69
2017-01-07T03:14:20.627Z,-10.73
2017-01-07T03:15:20.620Z,-10.71
2017-01-07T03:16:20.203Z,-10.71
2017-01-07T03:17:20.604Z,-10.83
2017-01-07T03:18:20.604Z,-10.92
2017-01-07T03:19:19.780Z,-10.83
2017-01-07T03:20:20.180Z,-10.96
2017-01-07T03:21:20.183Z,-10.95
2017-01-07T03:22:20.175Z,-11.02
2017-01-07T03:23:20.168Z,-10.93
2017-01-07T03:24:20.156Z,-10.92
2017-01-07T03:25:20.152Z,-10.83
2017-01-07T03:26:20.144Z,-10.95
2017-01-07T03:27:20.148Z,-10.9
2017-01-07T03:28:20.140Z,-10.85
2017-01-07T03:29:20.141Z,-10.88
2017-01-07T03:30:20.124Z,-10.76
2017-01-07T03:31:20.126Z,-10.67
2017-01-07T03:32:20.120Z,-10.65
2017-01-07T03:33:20.108Z,-10.78
2017-01-07T03:34:20.108Z,-10.67
2017-01-07T03:35:20.101Z,-10.73
2017-01-07T03:36:20.509Z,-10.6
2017-01-07T03:37:20.092Z,-10.65
2017-01-07T03:38:20.488Z,-10.56
2017-01-07T03:39:20.081Z,-10.53
2017-01-07T03:40:20.080Z,-10.66
2017-01-07T03:41:20.065Z,-10.59
2017-01-07T03:42:20.061Z,-10.57
2017-01-07T03:43:20.062Z,-10.55
2017-01-07T03:44:20.469Z,-10.65
2017-01-07T03:45:20.462Z,-10.67
2017-01-07T03:46:20.038Z,-10.65
2017-01-07T03:47:20.450Z,-10.76
2017-01-07T03:48:20.442Z,-10.69
2017-01-07T03:49:20.030Z,-10.69
2017-01-07T03:50:20.434Z,-10.77
2017-01-07T03:51:20.014Z,-10.81
2017-01-07T03:52:20.015Z,-10.85
2017-01-07T03:53:20.411Z,-10.76
2017-01-07T03:54:19.599Z,-10.78
2017-01-07T03:55:19.995Z,-10.73
2017-01-07T03:56:20.399Z,-10.76
2017-01-07T03:57:19.984Z,-10.71
2017-01-07T03:58:19.976Z,-10.57
2017-01-07T03:59:19.972Z,-10.52
2017-01-07T04:00:20.384Z,-10.46
2017-01-07T04:01:20.368Z,-10.46
2017-01-07T04:02:19.956Z,-10.44
2017-01-07T04:03:19.972Z,-10.34
2017-01-07T04:04:20.353Z,-10.34
2017-01-07T04:05:19.944Z,-10.34
2017-01-07T04:06:19.941Z,-10.23
2017-01-07T04:07:20.337Z,-10.24
2017-01-07T04:08:19.925Z,-10.14
2017-01-07T04:09:19.511Z,-10.09
2017-01-07T04:10:19.922Z,-10.1
2017-01-07T04:11:19.501Z,-10.03
2017-01-07T04:12:20.317Z,-9.94
2017-01-07T04:13:20.310Z,-9.92
2017-01-07T04:14:19.889Z,-9.96
2017-01-07T04:15:20.304Z,-9.96
2017-01-07T04:16:19.878Z,-9.92
2017-01-07T04:17:19.466Z,-9.86
2017-01-07T04:18:20.289Z,-9.96
2017-01-07T04:19:20.282Z,-9.94
2017-01-07T04:20:20.274Z,-9.97
2017-01-07T04:21:20.270Z,-9.92
2017-01-07T04:22:20.263Z,-9.92
2017-01-07T04:23:19.431Z,-9.88
2017-01-07T04:24:19.850Z,-9.99
2017-01-07T04:25:20.247Z,-9.94
2017-01-07T04:26:19.859Z,-9.94
2017-01-07T04:27:19.823Z,-9.91
2017-01-07T04:28:19.815Z,-10.02
2017-01-07T04:29:20.223Z,-10.09
2017-01-07T04:30:19.803Z,-10.15
2017-01-07T04:31:19.395Z,-10.2
2017-01-07T04:32:19.800Z,-10.36
2017-01-07T04:33:20.196Z,-10.35
2017-01-07T04:34:20.203Z,-10.41
2017-01-07T04:35:20.200Z,-10.44
2017-01-07T04:36:20.192Z,-10.48
2017-01-07T04:37:19.776Z,-10.48
2017-01-07T04:38:20.184Z,-10.42
2017-01-07T04:39:20.176Z,-10.34
2017-01-07T04:40:19.753Z,-10.38
2017-01-07T04:41:19.741Z,-10.38
2017-01-07T04:42:20.149Z,-10.3
2017-01-07T04:43:20.149Z,-10.36
2017-01-07T04:44:20.137Z,-10.31
2017-01-07T04:45:20.145Z,-10.28
2017-01-07T04:46:20.129Z,-10.31
2017-01-07T04:47:19.721Z,-10.28
2017-01-07T04:48:19.719Z,-10.31
2017-01-07T04:49:19.298Z,-10.35
2017-01-07T04:50:19.710Z,-10.27
2017-01-07T04:51:19.694Z,-10.34
2017-01-07T04:52:20.098Z,-10.36
2017-01-07T04:53:20.106Z,-10.34
2017-01-07T04:54:19.682Z,-10.31
2017-01-07T04:55:20.103Z,-10.23
2017-01-07T04:56:20.086Z,-10.18
2017-01-07T04:57:20.078Z,-10.21
2017-01-07T04:58:20.070Z,-10.2
2017-01-07T04:59:20.063Z,-10.25
2017-01-07T05:00:20.067Z,-10.2
2017-01-07T05:01:19.235Z,-10.23
2017-01-07T05:02:19.643Z,-10.2
2017-01-07T05:03:20.047Z,-10.34
2017-01-07T05:04:19.623Z,-10.35
2017-01-07T05:05:19.623Z,-10.35
2017-01-07T05:06:20.023Z,-10.31
2017-01-07T05:07:20.051Z,-10.27
2017-01-07T05:08:20.020Z,-10.3
2017-01-07T05:09:20.023Z,-10.23
2017-01-07T05:10:19.596Z,-10.3
2017-01-07T05:11:19.596Z,-10.21
2017-01-07T05:12:20.004Z,-10.24
2017-01-07T05:13:19.580Z,-10.05
2017-01-07T05:14:19.576Z,-10
2017-01-07T05:15:19.590Z,-9.92
2017-01-07T05:16:19.572Z,-9.88
2017-01-07T05:17:19.152Z,-9.74
2017-01-07T05:18:19.566Z,-9.71
2017-01-07T05:19:19.545Z,-9.71
2017-01-07T05:20:19.957Z,-9.56
2017-01-07T05:21:19.537Z,-9.52
2017-01-07T05:22:19.945Z,-9.53
2017-01-07T05:23:19.529Z,-9.45
2017-01-07T05:24:19.525Z,-9.37
2017-01-07T05:25:19.933Z,-9.43
2017-01-07T05:26:19.513Z,-9.39
2017-01-07T05:27:19.925Z,-9.39
2017-01-07T05:28:19.913Z,-9.39
2017-01-07T05:29:19.913Z,-9.41
2017-01-07T05:30:19.493Z,-9.45
2017-01-07T05:31:19.897Z,-9.37
2017-01-07T05:32:19.897Z,-9.35
2017-01-07T05:33:19.877Z,-9.33
2017-01-07T05:34:19.877Z,-9.41
2017-01-07T05:35:19.469Z,-9.41
2017-01-07T05:36:19.469Z,-9.52
2017-01-07T05:37:19.045Z,-9.52
2017-01-07T05:38:19.865Z,-9.53
2017-01-07T05:39:19.450Z,-9.63
2017-01-07T05:40:19.438Z,-9.68
2017-01-07T05:41:19.434Z,-9.7
2017-01-07T05:42:19.838Z,-9.68
2017-01-07T05:43:19.426Z,-9.86
2017-01-07T05:44:19.834Z,-9.73
2017-01-07T05:45:19.413Z,-9.78
2017-01-07T05:46:19.816Z,-9.74
2017-01-07T05:47:19.402Z,-9.86
2017-01-07T05:48:19.398Z,-9.91
2017-01-07T05:49:19.802Z,-10
2017-01-07T05:50:19.386Z,-9.96
2017-01-07T05:51:19.797Z,-9.96
2017-01-07T05:52:19.786Z,-9.91
2017-01-07T05:53:19.774Z,-9.94
2017-01-07T05:54:19.370Z,-9.94
2017-01-07T05:55:19.782Z,-9.97
2017-01-07T05:56:19.766Z,-9.97
2017-01-07T05:57:19.762Z,-9.92
2017-01-07T05:58:19.766Z,-9.94
2017-01-07T05:59:19.758Z,-9.96
2017-01-07T06:00:19.742Z,-9.96
2017-01-07T06:01:19.334Z,-9.89
2017-01-07T06:02:19.334Z,-9.85
2017-01-07T06:03:19.318Z,-9.79
2017-01-07T06:04:19.730Z,-9.86
2017-01-07T06:05:19.307Z,-9.73
2017-01-07T06:06:19.711Z,-9.79
2017-01-07T06:07:19.714Z,-9.85
2017-01-07T06:08:19.299Z,-9.73
2017-01-07T06:09:19.703Z,-9.73
2017-01-07T06:10:19.691Z,-9.65
2017-01-07T06:11:19.683Z,-9.65
2017-01-07T06:12:19.683Z,-9.67
2017-01-07T06:13:19.271Z,-9.49
2017-01-07T06:14:18.860Z,-9.46
2017-01-07T06:15:19.672Z,-9.41
2017-01-07T06:16:19.667Z,-9.41
2017-01-07T06:17:19.660Z,-9.35
2017-01-07T06:18:19.652Z,-9.28
2017-01-07T06:19:19.228Z,-9.25
2017-01-07T06:20:19.240Z,-9.24
2017-01-07T06:21:19.636Z,-9.16
2017-01-07T06:22:18.817Z,-9.12
2017-01-07T06:23:19.216Z,-9.09
2017-01-07T06:24:19.628Z,-9.07
2017-01-07T06:25:19.200Z,-9.13
2017-01-07T06:26:19.200Z,-9.14
2017-01-07T06:27:18.781Z,-9.13
2017-01-07T06:28:18.780Z,-9.04
2017-01-07T06:29:19.601Z,-8.96
2017-01-07T06:30:19.193Z,-8.92
2017-01-07T06:31:19.177Z,-9.03
2017-01-07T06:32:19.585Z,-8.98
2017-01-07T06:33:19.581Z,-9.07
2017-01-07T06:34:19.157Z,-9.09
2017-01-07T06:35:19.149Z,-8.98
2017-01-07T06:36:19.557Z,-9.1
2017-01-07T06:37:19.559Z,-9.04
2017-01-07T06:38:19.137Z,-9.07
2017-01-07T06:39:19.549Z,-8.89
2017-01-07T06:40:19.541Z,-8.98
2017-01-07T06:41:19.537Z,-8.98
2017-01-07T06:42:18.705Z,-8.85
2017-01-07T06:43:19.118Z,-8.85
2017-01-07T06:44:19.513Z,-8.74
2017-01-07T06:45:19.096Z,-8.67
2017-01-07T06:46:19.096Z,-8.71
2017-01-07T06:47:19.501Z,-8.74
2017-01-07T06:48:19.088Z,-8.59
2017-01-07T06:49:19.496Z,-8.68
2017-01-07T06:50:19.080Z,-8.74
2017-01-07T06:51:19.072Z,-8.77
2017-01-07T06:52:19.480Z,-8.74
2017-01-07T06:53:19.208Z,-8.8
2017-01-07T06:54:19.472Z,-8.73
2017-01-07T06:55:19.464Z,-8.8
2017-01-07T06:56:19.044Z,-8.8
2017-01-07T06:57:19.048Z,-8.86
2017-01-07T06:58:19.036Z,-8.77
2017-01-07T06:59:19.032Z,-8.78
2017-01-07T07:00:19.440Z,-8.71
2017-01-07T07:01:19.433Z,-8.7
2017-01-07T07:02:19.016Z,-8.6
2017-01-07T07:03:19.416Z,-8.6
2017-01-07T07:04:19.013Z,-8.56
2017-01-07T07:05:19.420Z,-8.62
2017-01-07T07:06:18.992Z,-8.56
2017-01-07T07:07:18.996Z,-8.6
2017-01-07T07:08:19.392Z,-8.56
2017-01-07T07:09:18.985Z,-8.44
2017-01-07T07:10:19.385Z,-8.56
2017-01-07T07:11:19.389Z,-8.62
2017-01-07T07:12:18.556Z,-8.59
2017-01-07T07:13:19.373Z,-8.59
2017-01-07T07:14:18.957Z,-8.5
2017-01-07T07:15:19.361Z,-8.49
2017-01-07T07:16:18.961Z,-8.52
2017-01-07T07:17:19.353Z,-8.38
2017-01-07T07:18:19.341Z,-8.46
2017-01-07T07:19:18.545Z,-8.38
2017-01-07T07:20:18.925Z,-8.38
2017-01-07T07:21:18.921Z,-8.34
2017-01-07T07:22:19.325Z,-8.31
2017-01-07T07:23:19.325Z,-8.26
2017-01-07T07:24:19.321Z,-8.23
2017-01-07T07:25:18.893Z,-8.23
2017-01-07T07:26:19.309Z,-8.23
2017-01-07T07:27:19.297Z,-8.2
2017-01-07T07:28:18.881Z,-8.26
2017-01-07T07:29:19.289Z,-8.26
2017-01-07T07:30:19.277Z,-8.32
2017-01-07T07:31:19.273Z,-8.39
2017-01-07T07:32:19.273Z,-8.36
2017-01-07T07:33:19.265Z,-8.42
2017-01-07T07:34:18.849Z,-8.46
2017-01-07T07:35:18.437Z,-8.47
2017-01-07T07:36:18.846Z,-8.42
2017-01-07T07:37:19.249Z,-8.38
2017-01-07T07:38:18.837Z,-8.36
2017-01-07T07:39:19.262Z,-8.36
2017-01-07T07:40:18.410Z,-8.36
2017-01-07T07:41:18.822Z,-8.42
2017-01-07T07:42:19.227Z,-8.38
2017-01-07T07:43:19.226Z,-8.38
2017-01-07T07:44:18.794Z,-8.38
2017-01-07T07:45:18.382Z,-8.44
2017-01-07T07:46:19.210Z,-8.47
2017-01-07T07:47:19.202Z,-8.59
2017-01-07T07:48:18.787Z,-8.54
2017-01-07T07:49:18.778Z,-8.57
2017-01-07T07:50:19.178Z,-8.56
2017-01-07T07:51:19.174Z,-8.54
2017-01-07T07:52:18.762Z,-8.47
2017-01-07T07:53:18.754Z,-8.5
2017-01-07T07:54:19.167Z,-8.59
2017-01-07T07:55:18.750Z,-8.59
2017-01-07T07:56:18.342Z,-8.57
2017-01-07T07:57:19.144Z,-8.56
2017-01-07T07:58:18.730Z,-8.68
2017-01-07T07:59:19.142Z,-8.68
2017-01-07T08:00:19.131Z,-8.74
2017-01-07T08:01:18.715Z,-8.68
2017-01-07T08:02:18.735Z,-8.75
2017-01-07T08:03:18.715Z,-8.73
2017-01-07T08:04:18.714Z,-8.75
2017-01-07T08:05:19.114Z,-8.7
2017-01-07T08:06:18.278Z,-8.71
2017-01-07T08:07:18.687Z,-8.64
2017-01-07T08:08:19.095Z,-8.6
2017-01-07T08:09:19.090Z,-8.65
2017-01-07T08:10:18.670Z,-8.68
2017-01-07T08:11:18.670Z,-8.67
2017-01-07T08:12:18.666Z,-8.78
2017-01-07T08:13:19.074Z,-8.77
2017-01-07T08:14:18.654Z,-8.77
2017-01-07T08:15:18.650Z,-8.71
2017-01-07T08:16:19.054Z,-8.62
2017-01-07T08:17:19.050Z,-8.6
2017-01-07T08:18:18.250Z,-8.38
2017-01-07T08:19:19.042Z,-8.38
2017-01-07T08:20:18.626Z,-8.41
2017-01-07T08:21:19.034Z,-8.38
2017-01-07T08:22:19.042Z,-8.46
2017-01-07T08:23:19.022Z,-8.57
2017-01-07T08:24:18.602Z,-8.35
2017-01-07T08:25:19.012Z,-8.39
2017-01-07T08:26:18.602Z,-8.52
2017-01-07T08:27:19.005Z,-8.36
2017-01-07T08:28:18.170Z,-8.53
2017-01-07T08:29:18.578Z,-8.41
2017-01-07T08:30:18.580Z,-8.54
2017-01-07T08:31:18.982Z,-8.44
2017-01-07T08:32:18.570Z,-8.49
2017-01-07T08:33:18.973Z,-8.44
2017-01-07T08:34:18.141Z,-8.49
2017-01-07T08:35:18.965Z,-8.41
2017-01-07T08:36:18.954Z,-8.28
2017-01-07T08:37:18.957Z,-8.36
2017-01-07T08:38:18.953Z,-8.26
2017-01-07T08:39:18.945Z,-8.23
2017-01-07T08:40:18.937Z,-8.18
2017-01-07T08:41:18.521Z,-8.18
2017-01-07T08:42:18.925Z,-8.07
2017-01-07T08:43:18.925Z,-8.11
2017-01-07T08:44:18.512Z,-8.05
2017-01-07T08:45:18.504Z,-8.11
2017-01-07T08:46:18.496Z,-8.05
2017-01-07T08:47:18.488Z,-8.11
2017-01-07T08:48:18.899Z,-8.1
2017-01-07T08:49:18.476Z,-8.14
2017-01-07T08:50:18.887Z,-8.11
2017-01-07T08:51:18.063Z,-8.08
2017-01-07T08:52:31.589Z,-8.11
2017-01-07T08:53:18.848Z,-8.05
2017-01-07T08:54:18.448Z,-8.02
2017-01-07T08:55:18.855Z,-7.99
2017-01-07T08:56:18.847Z,-7.99
2017-01-07T08:57:18.435Z,-7.88
2017-01-07T08:58:18.850Z,-7.95
2017-01-07T08:59:18.026Z,-7.88
2017-01-07T09:00:18.846Z,-7.94
2017-01-07T09:01:18.418Z,-7.91
2017-01-07T09:02:18.833Z,-7.89
2017-01-07T09:03:18.406Z,-7.91
2017-01-07T09:04:18.819Z,-7.95
2017-01-07T09:05:17.989Z,-7.92
2017-01-07T09:06:18.817Z,-7.89
2017-01-07T09:07:18.389Z,-7.85
2017-01-07T09:08:18.805Z,-7.84
2017-01-07T09:09:18.377Z,-7.83
2017-01-07T09:10:18.385Z,-7.78
2017-01-07T09:11:17.961Z,-7.77
2017-01-07T09:12:18.777Z,-7.71
2017-01-07T09:13:18.776Z,-7.7
2017-01-07T09:14:18.356Z,-7.6
2017-01-07T09:15:18.352Z,-7.46
2017-01-07T09:16:18.764Z,-7.42
2017-01-07T09:17:18.756Z,-7.35
2017-01-07T09:18:18.336Z,-7.48
2017-01-07T09:19:18.748Z,-7.32
2017-01-07T09:20:18.335Z,-7.27
2017-01-07T09:21:18.735Z,-7.2
2017-01-07T09:22:18.311Z,-7.1
2017-01-07T09:23:18.719Z,-6.97
2017-01-07T09:24:18.727Z,-6.97
2017-01-07T09:25:18.719Z,-6.89
2017-01-07T09:26:17.899Z,-6.84
2017-01-07T09:27:18.706Z,-6.75
2017-01-07T09:28:18.295Z,-6.73
2017-01-07T09:29:18.290Z,-6.61
2017-01-07T09:30:18.690Z,-6.58
2017-01-07T09:31:18.278Z,-6.52
2017-01-07T09:32:18.678Z,-6.42
2017-01-07T09:33:18.299Z,-6.39
2017-01-07T09:34:18.674Z,-6.2
2017-01-07T09:35:18.410Z,-6.1
2017-01-07T09:36:18.254Z,-6
2017-01-07T09:37:18.250Z,-5.91
2017-01-07T09:38:18.662Z,-5.89
2017-01-07T09:39:18.650Z,-5.71
2017-01-07T09:40:18.650Z,-5.64
2017-01-07T09:41:18.234Z,-5.27
2017-01-07T09:42:18.226Z,-5.09
2017-01-07T09:43:18.642Z,-4.95
2017-01-07T09:44:17.810Z,-4.74
2017-01-07T09:45:18.629Z,-4.67
2017-01-07T09:46:18.622Z,-4.55
2017-01-07T09:47:18.614Z,-4.47
2017-01-07T09:48:18.613Z,-4.35
2017-01-07T09:49:18.610Z,-4.24
2017-01-07T09:50:18.605Z,-4.19
2017-01-07T09:51:18.606Z,-4.19
2017-01-07T09:52:18.597Z,-4.14
2017-01-07T09:53:18.190Z,-4.05
2017-01-07T09:54:18.197Z,-4.04
2017-01-07T09:55:18.578Z,-3.96
2017-01-07T09:56:18.585Z,-3.94
2017-01-07T09:57:18.166Z,-3.85
2017-01-07T09:58:18.162Z,-3.78
2017-01-07T09:59:17.742Z,-3.81
2017-01-07T10:00:17.734Z,-3.66
2017-01-07T10:01:17.738Z,-3.75
2017-01-07T10:02:18.549Z,-3.62
2017-01-07T10:03:17.721Z,-3.61
2017-01-07T10:04:17.725Z,-3.59
2017-01-07T10:05:18.130Z,-3.44
2017-01-07T10:06:18.541Z,-3.46
2017-01-07T10:07:18.534Z,-3.3
2017-01-07T10:08:18.527Z,-3.19
2017-01-07T10:09:18.130Z,-3.12
2017-01-07T10:10:18.118Z,-3.01
2017-01-07T10:11:18.522Z,-2.96
2017-01-07T10:12:18.510Z,-2.98
2017-01-07T10:13:18.505Z,-2.94
2017-01-07T10:14:18.097Z,-3.01
2017-01-07T10:15:18.501Z,-2.98
2017-01-07T10:16:18.081Z,-2.86
2017-01-07T10:17:18.085Z,-2.86
2017-01-07T10:18:18.493Z,-2.91
2017-01-07T10:19:18.486Z,-2.89
2017-01-07T10:20:18.057Z,-2.87
2017-01-07T10:21:18.065Z,-2.87
2017-01-07T10:22:18.466Z,-2.87
2017-01-07T10:23:18.053Z,-2.81
2017-01-07T10:24:18.465Z,-2.81
2017-01-07T10:25:18.037Z,-2.76
2017-01-07T10:26:18.450Z,-2.73
2017-01-07T10:27:18.462Z,-2.75
2017-01-07T10:28:18.437Z,-2.75
2017-01-07T10:29:18.442Z,-2.69
2017-01-07T10:30:17.617Z,-2.69
2017-01-07T10:31:18.434Z,-2.69
2017-01-07T10:32:18.425Z,-2.63
2017-01-07T10:33:18.017Z,-2.55
2017-01-07T10:34:18.009Z,-2.51
2017-01-07T10:35:18.421Z,-2.54
2017-01-07T10:36:18.001Z,-2.7
2017-01-07T10:37:18.002Z,-2.83
2017-01-07T10:38:17.998Z,-3.04
2017-01-07T10:39:17.994Z,-3.3
2017-01-07T10:40:17.994Z,-3.62
2017-01-07T10:41:18.397Z,-3.78
2017-01-07T10:42:18.398Z,-4.04
2017-01-07T10:43:17.558Z,-4.08
2017-01-07T10:44:18.386Z,-4.13
2017-01-07T10:45:17.562Z,-4.23
2017-01-07T10:46:18.378Z,-4.19
2017-01-07T10:47:18.370Z,-4.24
2017-01-07T10:48:18.367Z,-4.31
2017-01-07T10:49:17.955Z,-4.17
2017-01-07T10:50:18.367Z,-4.09
2017-01-07T10:51:18.359Z,-4.06
2017-01-07T10:52:18.359Z,-4.01
2017-01-07T10:53:17.943Z,-4.06
2017-01-07T10:54:18.347Z,-4.01
2017-01-07T10:55:18.336Z,-4.05
2017-01-07T10:56:17.924Z,-3.99
2017-01-07T10:57:18.332Z,-4.02
2017-01-07T10:58:18.336Z,-3.94
2017-01-07T10:59:18.336Z,-3.88
2017-01-07T11:00:18.328Z,-3.75
2017-01-07T11:01:18.324Z,-3.51
2017-01-07T11:02:17.901Z,-3.48
2017-01-07T11:03:18.308Z,-3.48
2017-01-07T11:04:18.313Z,-3.2
2017-01-07T11:05:18.309Z,-3.19
2017-01-07T11:06:18.301Z,-3.07
2017-01-07T11:07:18.301Z,-3.04
2017-01-07T11:08:18.298Z,-2.93
2017-01-07T11:09:18.301Z,-2.98
2017-01-07T11:10:17.882Z,-2.89
2017-01-07T11:11:18.290Z,-2.84
2017-01-07T11:12:17.458Z,-2.87
2017-01-07T11:13:17.870Z,-2.73
2017-01-07T11:14:18.278Z,-2.75
2017-01-07T11:15:17.862Z,-2.68
2017-01-07T11:16:17.855Z,-2.69
2017-01-07T11:17:18.272Z,-2.73
2017-01-07T11:18:17.855Z,-2.68
2017-01-07T11:19:17.855Z,-2.61
2017-01-07T11:20:18.259Z,-2.45
2017-01-07T11:21:18.249Z,-2.36
2017-01-07T11:22:17.840Z,-2.39
2017-01-07T11:23:17.843Z,-2.33
2017-01-07T11:24:18.240Z,-2.42
2017-01-07T11:25:17.831Z,-2.33
2017-01-07T11:26:17.828Z,-2.25
2017-01-07T11:27:17.828Z,-2.11
2017-01-07T11:28:18.240Z,-1.92
2017-01-07T11:29:18.221Z,-1.89
2017-01-07T11:30:18.232Z,-1.72
2017-01-07T11:31:18.220Z,-1.63
2017-01-07T11:32:17.801Z,-1.39
2017-01-07T11:33:17.389Z,-1.46
2017-01-07T11:34:18.209Z,-1.35
2017-01-07T11:35:18.204Z,-1.25
2017-01-07T11:36:18.209Z,-1.24
2017-01-07T11:37:17.785Z,-1.19
2017-01-07T11:38:17.785Z,-1.22
2017-01-07T11:39:18.193Z,-1.17
2017-01-07T11:40:18.190Z,-1.09
2017-01-07T11:41:18.185Z,-1.03
2017-01-07T11:42:18.178Z,-0.96
2017-01-07T11:43:18.185Z,-1
2017-01-07T11:44:17.762Z,-1.03
2017-01-07T11:45:17.758Z,-0.96
2017-01-07T11:46:18.170Z,-0.85
2017-01-07T11:47:18.162Z,-0.91
2017-01-07T11:48:18.166Z,-0.84
2017-01-07T11:49:18.154Z,-0.75
2017-01-07T11:50:18.158Z,-0.67
2017-01-07T11:51:18.154Z,-0.69
2017-01-07T11:52:18.146Z,-0.74
2017-01-07T11:53:17.322Z,-0.49
2017-01-07T11:54:17.735Z,-0.53
2017-01-07T11:55:17.559Z,-0.53
2017-01-07T11:56:18.135Z,-0.59
2017-01-07T11:57:17.311Z,-0.7
2017-01-07T11:58:18.123Z,-0.7
2017-01-07T11:59:17.715Z,-0.62
2017-01-07T12:00:18.128Z,-0.6
2017-01-07T12:01:17.716Z,-0.59
2017-01-07T12:02:18.108Z,-0.59
2017-01-07T12:03:17.296Z,-0.45
2017-01-07T12:04:18.108Z,-0.39
2017-01-07T12:05:17.697Z,-0.36
2017-01-07T12:06:18.096Z,-0.45
2017-01-07T12:07:18.097Z,-0.41
2017-01-07T12:08:18.101Z,-0.38
2017-01-07T12:09:17.685Z,-0.3
2017-01-07T12:10:17.685Z,-0.27
2017-01-07T12:11:17.677Z,-0.31
2017-01-07T12:12:18.094Z,-0.31
2017-01-07T12:13:17.669Z,-0.3
2017-01-07T12:14:17.665Z,-0.28
2017-01-07T12:15:18.078Z,-0.27
2017-01-07T12:16:17.662Z,-0.31
2017-01-07T12:17:18.074Z,-0.3
2017-01-07T12:18:18.106Z,-0.3
2017-01-07T12:19:18.066Z,-0.38
2017-01-07T12:20:18.062Z,-0.26
2017-01-07T12:21:17.646Z,-0.3
2017-01-07T12:22:18.058Z,-0.26
2017-01-07T12:23:18.059Z,-0.28
2017-01-07T12:24:18.055Z,-0.28
2017-01-07T12:25:18.043Z,-0.31
2017-01-07T12:26:18.044Z,-0.3
2017-01-07T12:27:17.631Z,-0.27
2017-01-07T12:28:18.039Z,-0.35
2017-01-07T12:29:17.620Z,-0.28
2017-01-07T12:30:18.036Z,-0.36
2017-01-07T12:31:17.643Z,-0.28
2017-01-07T12:32:17.619Z,-0.33
2017-01-07T12:33:17.608Z,-0.38
2017-01-07T12:34:18.020Z,-0.36
2017-01-07T12:35:18.024Z,-0.38
2017-01-07T12:36:17.604Z,-0.35
2017-01-07T12:37:18.012Z,-0.39
2017-01-07T12:38:17.605Z,-0.35
2017-01-07T12:39:17.600Z,-0.42
2017-01-07T12:40:17.186Z,-0.36
2017-01-07T12:41:18.013Z,-0.45
2017-01-07T12:42:18.001Z,-0.41
2017-01-07T12:43:17.585Z,-0.33
2017-01-07T12:44:17.581Z,-0.31
2017-01-07T12:45:17.993Z,-0.28